Time;durP1;ratioP1;P1;durP2;ratioP2;P2;SDS_P1;SDS_P2;PMS_P1;PMS_P2;Temp;Humidity;BMP_temperature;BMP_pressure;BME280_temperature;BME280_humidity;BME280_pressure;Samples;Min_cycle;Max_cycle;Signal;HPM_P1;HPM_P2
2022/11/21 00:01:52;;;;;;;37.70;14.00;;;6.30;91.50;;;;;;5115854;28;20028;-74
2022/11/21 00:04:18;;;;;;;36.85;14.70;;;6.30;91.50;;;;;;5115765;28;20084;-73
2022/11/21 00:06:43;;;;;;;35.42;14.88;;;6.30;91.50;;;;;;5114730;28;20044;-74
2022/11/21 00:09:09;;;;;;;32.70;13.80;;;6.30;91.50;;;;;;5114794;28;20032;-73
2022/11/21 00:11:35;;;;;;;37.35;13.85;;;6.30;91.50;;;;;;5115713;28;20039;-74
2022/11/21 00:14:00;;;;;;;32.08;14.52;;;6.30;91.50;;;;;;5115202;28;20039;-74
2022/11/21 00:16:26;;;;;;;35.50;14.52;;;6.30;91.40;;;;;;5115631;28;20051;-74
2022/11/21 00:18:51;;;;;;;32.45;13.32;;;6.30;91.30;;;;;;5115535;28;20034;-73
2022/11/21 00:21:19;;;;;;;34.00;13.60;;;6.30;91.30;;;;;;5115532;28;20020;-73
2022/11/21 00:23:46;;;;;;;35.33;13.50;;;6.30;91.30;;;;;;5114513;28;20020;-73
2022/11/21 00:26:13;;;;;;;35.28;13.90;;;6.30;91.30;;;;;;5114389;28;20030;-74
2022/11/21 00:28:39;;;;;;;40.85;13.98;;;6.30;91.30;;;;;;5115380;28;20031;-73
2022/11/21 00:31:05;;;;;;;34.10;14.27;;;6.20;91.20;;;;;;5115362;28;20024;-74
2022/11/21 00:33:33;;;;;;;36.15;13.43;;;6.20;91.30;;;;;;5115320;28;20028;-74
2022/11/21 00:36:05;;;;;;;39.72;13.80;;;6.20;91.30;;;;;;5115260;28;20040;-74
2022/11/21 00:38:31;;;;;;;33.08;14.40;;;6.20;91.30;;;;;;5115253;28;20031;-73
2022/11/21 00:40:57;;;;;;;34.53;13.88;;;6.20;91.30;;;;;;5115135;28;20021;-73
2022/11/21 00:43:22;;;;;;;34.80;14.57;;;6.20;91.10;;;;;;5115079;28;20032;-74
2022/11/21 00:45:48;;;;;;;37.60;14.40;;;6.20;91.30;;;;;;5114970;28;20028;-74
2022/11/21 00:48:13;;;;;;;39.67;15.02;;;6.20;91.30;;;;;;5114058;28;20084;-73
2022/11/21 00:50:39;;;;;;;37.45;13.98;;;6.20;91.30;;;;;;5114930;28;20032;-74
2022/11/21 00:53:04;;;;;;;40.47;15.48;;;6.20;91.30;;;;;;5114887;28;20028;-74
2022/11/21 00:55:30;;;;;;;39.72;14.88;;;6.30;91.30;;;;;;5114835;28;20040;-73
2022/11/21 00:57:55;;;;;;;37.55;13.55;;;6.30;91.30;;;;;;5114786;28;20032;-74
2022/11/21 01:00:21;;;;;;;36.70;13.60;;;6.30;91.20;;;;;;5114762;28;20020;-74
2022/11/21 01:02:47;;;;;;;40.45;14.40;;;6.30;91.20;;;;;;5114724;28;20387;-73
2022/11/21 01:05:12;;;;;;;36.95;14.35;;;6.30;91.20;;;;;;5114601;28;20032;-74
2022/11/21 01:07:38;;;;;;;41.35;14.73;;;6.30;91.20;;;;;;5114310;28;20043;-73
2022/11/21 01:10:04;;;;;;;42.00;14.57;;;6.30;91.10;;;;;;5114592;28;20083;-73
2022/11/21 01:12:30;;;;;;;38.40;14.35;;;6.20;91.20;;;;;;5113742;28;20024;-74
2022/11/21 01:14:56;;;;;;;41.10;14.95;;;6.20;91.20;;;;;;5114450;28;20055;-74
2022/11/21 01:17:21;;;;;;;38.65;14.70;;;6.20;91.20;;;;;;5114415;28;20028;-74
2022/11/21 01:19:47;;;;;;;39.03;14.18;;;6.30;91.20;;;;;;5114387;28;20035;-74
2022/11/21 01:22:13;;;;;;;39.28;13.27;;;6.30;91.20;;;;;;5113413;28;20020;-74
2022/11/21 01:24:38;;;;;;;40.13;13.65;;;6.30;91.10;;;;;;5114232;28;20032;-74
2022/11/21 01:27:04;;;;;;;46.20;15.23;;;6.30;91.10;;;;;;5095557;28;20028;-74
2022/11/21 01:29:29;;;;;;;40.50;14.70;;;6.30;91.10;;;;;;5114224;28;20083;-74
2022/11/21 01:31:55;;;;;;;38.85;15.25;;;6.30;91.20;;;;;;5114179;28;20039;-73
2022/11/21 01:34:21;;;;;;;43.28;15.20;;;6.30;91.10;;;;;;5114143;28;20060;-74
2022/11/21 01:36:47;;;;;;;38.15;16.20;;;6.30;91.10;;;;;;5114102;28;20028;-73
2022/11/21 01:39:12;;;;;;;42.67;15.10;;;6.20;91.10;;;;;;5114045;28;20054;-74
2022/11/21 01:41:43;;;;;;;40.28;15.07;;;6.30;91.10;;;;;;5114043;28;20020;-74
2022/11/21 01:44:20;;;;;;;44.75;16.55;;;6.30;91.10;;;;;;5114100;28;20036;-74
2022/11/21 01:46:47;;;;;;;43.33;16.00;;;6.30;91.10;;;;;;5114013;28;20028;-73
2022/11/21 01:49:24;;;;;;;42.80;15.38;;;6.30;91.10;;;;;;5113905;28;20020;-74
2022/11/21 01:52:03;;;;;;;41.95;15.23;;;6.30;91.10;;;;;;5114060;28;20044;-73
2022/11/21 01:54:38;;;;;;;41.63;16.73;;;6.30;91.10;;;;;;5113857;28;20024;-74
2022/11/21 01:57:16;;;;;;;47.67;15.88;;;6.30;91.00;;;;;;5113932;28;20054;-73
2022/11/21 02:00:11;;;;;;;44.50;16.20;;;6.30;90.90;;;;;;5113849;28;20016;-74
2022/11/21 02:02:41;;;;;;;45.00;14.65;;;6.30;91.00;;;;;;5113768;28;20031;-74
2022/11/21 02:05:12;;;;;;;43.50;15.18;;;6.20;91.00;;;;;;5112608;28;20024;-73
2022/11/21 02:07:41;;;;;;;50.75;17.00;;;6.20;91.00;;;;;;5113464;28;20085;-74
2022/11/21 02:10:08;;;;;;;46.13;16.83;;;6.20;91.00;;;;;;5113696;28;20023;-74
2022/11/21 02:12:50;;;;;;;46.33;16.20;;;6.20;91.00;;;;;;5112601;28;20086;-74
2022/11/21 02:15:21;;;;;;;44.67;15.30;;;6.10;91.00;;;;;;5112687;28;20040;-74
2022/11/21 02:17:46;;;;;;;36.70;15.38;;;6.20;91.10;;;;;;5113622;28;20034;-73
2022/11/21 02:20:16;;;;;;;38.10;14.27;;;6.20;91.10;;;;;;5113646;28;20059;-74
2022/11/21 02:23:07;;;;;;;43.28;14.38;;;6.20;91.10;;;;;;5112547;28;20024;-73
2022/11/21 02:25:36;;;;;;;39.40;14.40;;;6.20;91.00;;;;;;5113398;28;20073;-74
2022/11/21 02:28:09;;;;;;;41.78;13.82;;;6.20;91.00;;;;;;5112503;28;20031;-74
2022/11/21 02:30:37;;;;;;;39.97;14.10;;;6.20;91.00;;;;;;5113436;28;20034;-74
2022/11/21 02:33:03;;;;;;;37.78;14.65;;;6.20;90.90;;;;;;5113332;28;20028;-74
2022/11/21 02:35:29;;;;;;;37.67;13.90;;;6.20;90.90;;;;;;5112478;28;20024;-74
2022/11/21 02:38:18;;;;;;;34.75;14.20;;;6.10;90.90;;;;;;5115583;28;20081;-74
2022/11/21 02:40:58;;;;;;;40.95;13.45;;;6.10;90.90;;;;;;5117516;28;20055;-73
2022/11/21 02:43:29;;;;;;;36.45;12.52;;;6.10;91.00;;;;;;5117485;28;20028;-73
2022/11/21 02:45:55;;;;;;;36.88;12.95;;;6.10;91.00;;;;;;5117358;28;20028;-73
2022/11/21 02:48:20;;;;;;;37.45;12.23;;;6.10;91.00;;;;;;5116418;28;20110;-74
2022/11/21 02:50:46;;;;;;;43.25;13.77;;;6.10;90.90;;;;;;5117328;28;20059;-73
2022/11/21 02:53:15;;;;;;;45.40;14.55;;;6.10;90.90;;;;;;5116236;28;20035;-74
2022/11/21 02:55:41;;;;;;;45.47;15.20;;;6.20;90.90;;;;;;5117209;28;20032;-74
2022/11/21 02:58:07;;;;;;;47.10;15.40;;;6.10;90.80;;;;;;5117200;28;20030;-74
2022/11/21 03:00:34;;;;;;;56.28;15.80;;;6.10;90.90;;;;;;5117116;28;20024;-74
2022/11/21 03:03:00;;;;;;;52.35;15.25;;;6.10;90.80;;;;;;5117107;28;20020;-74
2022/11/21 03:05:26;;;;;;;48.50;15.70;;;6.10;90.80;;;;;;5116955;28;20035;-74
2022/11/21 03:07:52;;;;;;;51.67;14.90;;;6.00;90.60;;;;;;5116726;28;20040;-74
2022/11/21 03:10:17;;;;;;;44.17;16.05;;;5.90;90.70;;;;;;5116906;28;20084;-74
2022/11/21 03:12:43;;;;;;;47.25;14.77;;;5.90;90.80;;;;;;5116873;28;20024;-73
2022/11/21 03:15:12;;;;;;;46.67;15.13;;;5.90;90.80;;;;;;5115766;28;20035;-74
2022/11/21 03:17:39;;;;;;;50.30;14.35;;;5.80;90.80;;;;;;5116820;28;20027;-74
2022/11/21 03:20:05;;;;;;;40.33;14.07;;;5.80;90.70;;;;;;5116776;28;20059;-73
2022/11/21 03:22:31;;;;;;;39.53;14.93;;;5.70;90.80;;;;;;5116688;28;20028;-73
2022/11/21 03:24:57;;;;;;;53.95;15.25;;;5.70;90.80;;;;;;5116608;28;20032;-74
2022/11/21 03:27:22;;;;;;;51.17;15.50;;;5.70;91.00;;;;;;5116747;28;20024;-74
2022/11/21 03:29:48;;;;;;;48.17;15.50;;;5.70;91.10;;;;;;5116567;28;20031;-74
2022/11/21 03:32:14;;;;;;;46.15;15.45;;;5.70;91.10;;;;;;5116504;28;20039;-73
2022/11/21 03:34:39;;;;;;;39.42;14.60;;;5.70;91.50;;;;;;5116484;28;20044;-73
2022/11/21 03:37:05;;;;;;;41.80;14.23;;;5.70;91.10;;;;;;5115441;28;20032;-74
2022/11/21 03:39:30;;;;;;;40.50;14.02;;;5.70;91.10;;;;;;5116398;28;20032;-74
2022/11/21 03:41:56;;;;;;;48.13;15.45;;;5.70;91.20;;;;;;5116447;28;20454;-73
2022/11/21 03:44:22;;;;;;;43.10;13.77;;;5.80;91.30;;;;;;5116203;28;20073;-73
2022/11/21 03:46:48;;;;;;;44.03;15.15;;;5.80;91.10;;;;;;5116218;28;20111;-74
2022/11/21 03:49:15;;;;;;;46.13;15.35;;;5.80;91.10;;;;;;5115357;28;20024;-74
2022/11/21 03:51:42;;;;;;;45.05;15.00;;;5.70;91.50;;;;;;5116123;28;20024;-73
2022/11/21 03:54:08;;;;;;;48.47;15.20;;;5.70;91.30;;;;;;5116124;28;20020;-74
2022/11/21 03:56:34;;;;;;;44.70;15.43;;;5.70;91.30;;;;;;5116083;28;20016;-74
2022/11/21 03:59:00;;;;;;;43.15;15.25;;;5.70;91.40;;;;;;5116019;28;20027;-73
2022/11/21 04:01:26;;;;;;;45.83;15.75;;;5.70;91.40;;;;;;5114955;28;20111;-74
2022/11/21 04:03:52;;;;;;;43.88;14.88;;;5.70;91.40;;;;;;5115890;28;20016;-74
2022/11/21 04:06:19;;;;;;;49.53;15.68;;;5.70;91.40;;;;;;5115597;28;20052;-74
2022/11/21 04:08:46;;;;;;;41.85;15.43;;;5.70;91.30;;;;;;5115794;28;20021;-74
2022/11/21 04:11:11;;;;;;;46.65;15.55;;;5.70;91.30;;;;;;5115795;28;20031;-74
2022/11/21 04:13:37;;;;;;;53.17;16.65;;;5.80;91.50;;;;;;5115685;28;20032;-74
2022/11/21 04:16:03;;;;;;;48.42;16.27;;;5.80;91.40;;;;;;5114728;28;20028;-74
2022/11/21 04:18:29;;;;;;;44.45;15.35;;;5.90;91.40;;;;;;5114675;28;20031;-74
2022/11/21 04:20:59;;;;;;;51.88;15.90;;;5.80;91.30;;;;;;5115561;28;20020;-74
2022/11/21 04:23:25;;;;;;;48.35;15.77;;;5.90;91.20;;;;;;5115843;28;20027;-74
2022/11/21 04:25:51;;;;;;;51.45;16.15;;;5.80;91.10;;;;;;5115424;28;20032;-73
2022/11/21 04:28:16;;;;;;;48.33;15.30;;;5.80;91.10;;;;;;5114529;28;20028;-73
2022/11/21 04:30:42;;;;;;;46.63;14.90;;;5.70;91.10;;;;;;5115507;28;20058;-74
2022/11/21 04:33:08;;;;;;;54.25;15.10;;;5.70;91.10;;;;;;5115312;28;20044;-74
2022/11/21 04:35:34;;;;;;;53.95;15.02;;;5.70;91.20;;;;;;5115415;28;20020;-74
2022/11/21 04:37:59;;;;;;;55.58;16.02;;;5.70;91.20;;;;;;5115208;28;20039;-74
2022/11/21 04:40:25;;;;;;;52.17;15.85;;;5.60;91.20;;;;;;5115152;28;20039;-73
2022/11/21 04:42:50;;;;;;;50.15;15.85;;;5.70;91.20;;;;;;5115247;28;20032;-74
2022/11/21 04:45:16;;;;;;;42.92;13.48;;;5.70;91.20;;;;;;5113972;28;20047;-73
2022/11/21 04:47:46;;;;;;;37.58;14.23;;;5.60;91.30;;;;;;5114054;28;20029;-73
2022/11/21 04:50:14;;;;;;;47.83;14.57;;;5.40;91.60;;;;;;5115048;28;20084;-73
2022/11/21 04:52:40;;;;;;;40.25;14.02;;;5.30;91.90;;;;;;5114968;28;20020;-73
2022/11/21 04:55:07;;;;;;;38.22;13.68;;;5.30;92.00;;;;;;5114910;28;20020;-74
2022/11/21 04:57:33;;;;;;;39.50;13.88;;;5.20;92.20;;;;;;5114821;28;20050;-74
2022/11/21 04:59:58;;;;;;;39.78;13.15;;;5.30;92.10;;;;;;5114795;28;20114;-74
2022/11/21 05:02:24;;;;;;;38.20;13.63;;;5.30;92.00;;;;;;5114744;28;20028;-73
2022/11/21 05:04:50;;;;;;;37.13;14.15;;;5.30;92.10;;;;;;5113708;28;20111;-74
2022/11/21 05:07:16;;;;;;;44.20;13.82;;;5.30;92.20;;;;;;5114374;28;20097;-74
2022/11/21 05:09:42;;;;;;;35.08;12.98;;;5.30;92.50;;;;;;5114524;28;20031;-73
2022/11/21 05:14:55;;;;;;;38.63;13.25;;;5.30;92.20;;;;;;5114768;28;20039;-73
2022/11/21 05:17:21;;;;;;;41.03;15.18;;;5.30;92.10;;;;;;5113552;28;20024;-74
2022/11/21 05:19:47;;;;;;;41.85;14.15;;;5.30;92.20;;;;;;5113492;28;20428;-73
2022/11/21 05:22:13;;;;;;;38.08;12.88;;;5.40;92.10;;;;;;5113321;28;20033;-73
2022/11/21 05:24:39;;;;;;;43.10;14.32;;;5.40;92.00;;;;;;5114240;28;20031;-74
2022/11/21 05:27:04;;;;;;;38.00;13.65;;;5.40;92.00;;;;;;5114337;28;20016;-73
2022/11/21 05:29:30;;;;;;;46.42;14.05;;;5.40;91.90;;;;;;5114261;28;20028;-73
2022/11/21 05:31:56;;;;;;;38.83;12.50;;;5.40;92.30;;;;;;5114186;28;20032;-73
2022/11/21 05:34:22;;;;;;;43.13;12.68;;;5.40;91.90;;;;;;5114156;28;20087;-74
2022/11/21 05:36:47;;;;;;;38.00;13.20;;;5.40;91.90;;;;;;5114285;28;20032;-74
2022/11/21 05:39:14;;;;;;;39.42;14.20;;;5.40;91.80;;;;;;5114112;28;20028;-74
2022/11/21 05:41:40;;;;;;;39.45;13.48;;;5.40;91.90;;;;;;5114049;28;20020;-74
2022/11/21 05:44:06;;;;;;;36.45;13.43;;;5.50;91.90;;;;;;5113039;28;20058;-74
2022/11/21 05:46:31;;;;;;;35.85;13.23;;;5.40;91.90;;;;;;5114148;28;20429;-74
2022/11/21 05:48:57;;;;;;;46.60;13.20;;;5.50;91.90;;;;;;5114001;28;20024;-73
2022/11/21 05:51:23;;;;;;;39.83;12.43;;;5.50;91.80;;;;;;5113117;28;20039;-74
2022/11/21 05:53:48;;;;;;;43.17;12.75;;;5.40;91.80;;;;;;5114025;28;20038;-74
2022/11/21 05:56:17;;;;;;;37.03;12.02;;;5.40;91.80;;;;;;5113083;28;20024;-74
2022/11/21 05:58:43;;;;;;;51.42;14.27;;;5.40;91.80;;;;;;5112927;28;20028;-74
2022/11/21 06:01:11;;;;;;;44.47;12.32;;;5.40;91.90;;;;;;5113769;28;20027;-75
2022/11/21 06:03:38;;;;;;;40.47;11.52;;;5.40;91.80;;;;;;5113734;28;20076;-74
2022/11/21 06:06:08;;;;;;;48.65;13.30;;;5.40;91.80;;;;;;5112509;28;20050;-75
2022/11/21 06:08:36;;;;;;;44.10;12.45;;;5.40;91.80;;;;;;5113655;28;20039;-74
2022/11/21 06:11:03;;;;;;;35.42;13.35;;;5.20;92.00;;;;;;5113612;28;20016;-75
2022/11/21 06:13:29;;;;;;;48.80;13.38;;;5.10;92.20;;;;;;5112221;28;20028;-74
2022/11/21 06:16:03;;;;;;;45.70;12.98;;;5.10;92.30;;;;;;5112791;28;20038;-74
2022/11/21 06:18:32;;;;;;;34.95;11.50;;;5.10;92.20;;;;;;5113599;28;20020;-74
2022/11/21 06:21:08;;;;;;;35.42;12.68;;;5.00;92.40;;;;;;5113559;28;20024;-74
2022/11/21 06:23:34;;;;;;;36.35;13.07;;;5.10;92.30;;;;;;5113474;28;20039;-74
2022/11/21 06:26:03;;;;;;;34.22;12.18;;;5.20;92.30;;;;;;5113374;28;20028;-74
2022/11/21 06:28:37;;;;;;;37.83;12.30;;;5.20;92.30;;;;;;5113464;28;20020;-75
2022/11/21 06:31:08;;;;;;;42.30;12.15;;;5.20;92.30;;;;;;5113462;28;20025;-74
2022/11/21 06:33:34;;;;;;;39.83;11.95;;;5.20;92.20;;;;;;5113404;28;20020;-74
2022/11/21 06:36:05;;;;;;;36.83;12.10;;;5.20;92.10;;;;;;5113432;28;20105;-74
2022/11/21 06:38:31;;;;;;;32.33;12.48;;;5.20;92.20;;;;;;5112410;28;20028;-74
2022/11/21 06:40:57;;;;;;;30.40;11.48;;;5.30;92.20;;;;;;5113351;28;20032;-74
2022/11/21 06:43:23;;;;;;;35.05;12.65;;;5.30;92.30;;;;;;5113309;28;20059;-74
2022/11/21 06:45:48;;;;;;;33.67;12.77;;;5.40;92.30;;;;;;5095411;28;20059;-74
2022/11/21 06:48:14;;;;;;;46.28;14.40;;;5.50;92.20;;;;;;5095358;28;20028;-74
2022/11/21 06:50:39;;;;;;;34.22;12.35;;;5.50;92.20;;;;;;5113145;28;20059;-74
2022/11/21 06:53:05;;;;;;;33.33;12.57;;;5.50;92.20;;;;;;5113245;28;20024;-74
2022/11/21 06:55:31;;;;;;;32.65;11.90;;;5.50;92.20;;;;;;5113172;28;20032;-74
2022/11/21 06:57:58;;;;;;;32.72;12.32;;;5.50;92.30;;;;;;5113171;28;20032;-74
2022/11/21 07:00:27;;;;;;;39.38;12.77;;;5.60;92.20;;;;;;5112199;28;20016;-74
2022/11/21 07:02:53;;;;;;;38.53;12.88;;;5.60;92.20;;;;;;5113106;28;20056;-75
2022/11/21 07:05:19;;;;;;;40.65;13.02;;;5.60;92.20;;;;;;5113075;28;20024;-74
2022/11/21 07:07:45;;;;;;;32.80;11.65;;;5.70;92.20;;;;;;5112711;28;20050;-74
2022/11/21 07:10:11;;;;;;;43.17;12.18;;;5.70;92.10;;;;;;5113123;28;20036;-74
2022/11/21 07:15:20;;;;;;;41.55;12.27;;;5.70;92.20;;;;;;5112375;28;20051;-74
2022/11/21 07:17:46;;;;;;;48.90;13.00;;;5.70;92.10;;;;;;5112011;28;20091;-75
2022/11/21 07:20:12;;;;;;;36.15;12.50;;;5.70;92.20;;;;;;5112912;28;20093;-74
2022/11/21 07:22:38;;;;;;;31.48;12.18;;;5.70;92.20;;;;;;5112987;28;20028;-74
2022/11/21 07:25:04;;;;;;;38.25;13.07;;;5.70;92.30;;;;;;5115035;28;20039;-74
2022/11/21 07:27:29;;;;;;;43.78;14.52;;;5.80;92.30;;;;;;5116667;28;20056;-74
2022/11/21 07:29:57;;;;;;;39.00;13.30;;;5.80;92.30;;;;;;5115611;28;20032;-74
2022/11/21 07:32:27;;;;;;;36.20;12.07;;;5.90;92.30;;;;;;5115730;28;20027;-75
2022/11/21 07:34:52;;;;;;;44.50;13.65;;;5.90;92.20;;;;;;5116505;28;20055;-75
2022/11/21 07:37:18;;;;;;;39.40;13.57;;;6.00;92.10;;;;;;5115542;28;20028;-74
2022/11/21 07:39:44;;;;;;;41.28;12.93;;;6.00;92.10;;;;;;5116497;28;20024;-74
2022/11/21 07:42:09;;;;;;;39.78;14.00;;;6.00;92.20;;;;;;5116350;28;20086;-75
2022/11/21 07:44:35;;;;;;;38.95;13.25;;;6.00;92.20;;;;;;5115426;28;20032;-75
2022/11/21 07:47:01;;;;;;;35.50;12.45;;;6.10;92.20;;;;;;5098538;28;20036;-74
2022/11/21 07:49:27;;;;;;;41.83;13.23;;;6.10;92.20;;;;;;5116235;28;20024;-74
2022/11/21 07:51:52;;;;;;;40.45;13.00;;;6.10;92.20;;;;;;5116115;28;20119;-74
2022/11/21 07:54:18;;;;;;;40.90;13.00;;;6.10;92.10;;;;;;5098292;28;20024;-74
2022/11/21 07:56:43;;;;;;;39.58;12.98;;;6.10;92.20;;;;;;5116076;28;20031;-74
2022/11/21 07:59:09;;;;;;;41.45;15.10;;;6.10;92.30;;;;;;5116172;28;20035;-74
2022/11/21 08:01:35;;;;;;;47.10;15.02;;;6.10;92.30;;;;;;5115933;28;20040;-74
2022/11/21 08:04:00;;;;;;;45.72;14.18;;;6.20;92.30;;;;;;5115922;28;20024;-74
2022/11/21 08:06:26;;;;;;;40.10;13.43;;;6.20;92.00;;;;;;5114939;28;20032;-74
2022/11/21 08:08:52;;;;;;;38.22;13.93;;;6.20;92.30;;;;;;5115580;28;20063;-74
2022/11/21 08:11:18;;;;;;;39.30;13.13;;;6.20;92.40;;;;;;5114874;28;20020;-74
2022/11/21 08:13:44;;;;;;;43.28;13.95;;;6.30;92.50;;;;;;5114793;28;20398;-75
2022/11/21 08:16:09;;;;;;;35.15;13.30;;;6.30;92.70;;;;;;5115683;28;20092;-74
2022/11/21 08:18:35;;;;;;;39.50;12.80;;;6.20;93.10;;;;;;5115781;28;20039;-74
2022/11/21 08:21:02;;;;;;;31.73;12.30;;;6.20;93.10;;;;;;5115598;28;20058;-74
2022/11/21 08:23:28;;;;;;;37.05;13.30;;;6.30;93.00;;;;;;5115546;28;20024;-74
2022/11/21 08:25:53;;;;;;;35.13;14.15;;;6.30;92.80;;;;;;5114431;28;20043;-75
2022/11/21 08:28:19;;;;;;;33.35;11.77;;;6.40;92.80;;;;;;5097496;28;20020;-74
2022/11/21 08:30:44;;;;;;;35.35;12.55;;;6.40;92.70;;;;;;5114486;28;20084;-75
2022/11/21 08:33:10;;;;;;;37.10;12.70;;;6.40;92.80;;;;;;5114320;28;20032;-74
2022/11/21 08:35:37;;;;;;;37.00;12.75;;;6.50;92.70;;;;;;5114975;28;20032;-74
2022/11/21 08:38:02;;;;;;;28.73;11.65;;;6.50;92.70;;;;;;5115254;28;20490;-74
2022/11/21 08:40:30;;;;;;;33.28;11.98;;;6.60;92.60;;;;;;5114232;28;20032;-74
2022/11/21 08:43:01;;;;;;;30.33;11.63;;;6.60;92.60;;;;;;5115164;28;20020;-74
2022/11/21 08:45:28;;;;;;;30.65;11.73;;;6.70;92.60;;;;;;5115053;28;20088;-74
2022/11/21 08:47:53;;;;;;;31.48;12.10;;;6.70;92.60;;;;;;5115081;28;20020;-73
2022/11/21 08:50:19;;;;;;;31.67;11.80;;;6.70;92.60;;;;;;5115032;28;20088;-74
2022/11/21 08:52:45;;;;;;;34.78;12.70;;;6.80;92.70;;;;;;5114025;28;20061;-74
2022/11/21 08:55:11;;;;;;;32.85;12.23;;;6.80;92.60;;;;;;5114039;28;20032;-74
2022/11/21 08:57:37;;;;;;;32.47;12.13;;;6.80;92.60;;;;;;5114888;28;20541;-74
2022/11/21 09:00:03;;;;;;;36.33;12.23;;;6.80;92.60;;;;;;5114844;28;20487;-74
2022/11/21 09:02:29;;;;;;;34.25;13.60;;;6.80;92.80;;;;;;5114812;28;20050;-74
2022/11/21 09:04:55;;;;;;;38.67;12.93;;;6.90;92.90;;;;;;5114660;28;20037;-74
2022/11/21 09:07:20;;;;;;;31.52;12.23;;;6.90;92.90;;;;;;5096712;28;20052;-74
2022/11/21 09:09:46;;;;;;;36.28;12.77;;;6.90;92.90;;;;;;5113626;28;20024;-74
2022/11/21 09:12:11;;;;;;;37.90;13.77;;;7.00;92.90;;;;;;5114607;28;20020;-74
2022/11/21 09:20:06;;;;;;;30.70;12.20;;;7.10;93.20;;;;;;5114527;28;20039;-74
2022/11/21 09:22:32;;;;;;;33.72;11.98;;;7.10;93.10;;;;;;5114450;28;20042;-73
2022/11/21 09:24:58;;;;;;;27.65;11.05;;;7.10;93.10;;;;;;5113332;28;20503;-74
2022/11/21 09:27:23;;;;;;;28.75;10.60;;;7.10;93.30;;;;;;5114479;28;20012;-74
2022/11/21 09:29:49;;;;;;;26.48;9.85;;;7.20;93.30;;;;;;5114253;28;20028;-74
2022/11/21 09:32:14;;;;;;;22.35;9.38;;;7.20;93.90;;;;;;5113363;28;20047;-74
2022/11/21 09:34:40;;;;;;;22.85;9.20;;;7.10;94.20;;;;;;5114204;28;20050;-74
2022/11/21 09:37:06;;;;;;;20.48;8.95;;;7.50;94.50;;;;;;5114183;28;20028;-74
2022/11/21 09:39:31;;;;;;;22.02;9.30;;;7.80;94.30;;;;;;5114087;28;20036;-74
2022/11/21 09:41:58;;;;;;;21.65;8.65;;;7.90;93.70;;;;;;5114083;28;20032;-74
2022/11/21 09:44:36;;;;;;;22.92;8.23;;;7.90;93.20;;;;;;5113938;28;20020;-74
2022/11/21 09:47:18;;;;;;;19.88;7.95;;;7.80;93.00;;;;;;5113481;28;20024;-74
2022/11/21 09:49:48;;;;;;;19.07;8.63;;;7.70;93.00;;;;;;5114158;28;20042;-74
2022/11/21 09:52:16;;;;;;;21.77;9.27;;;7.60;93.10;;;;;;5113940;28;20031;-74
2022/11/21 09:54:53;;;;;;;20.88;8.82;;;7.80;93.40;;;;;;5113870;28;20048;-75
2022/11/21 09:57:23;;;;;;;19.45;8.07;;;7.90;93.30;;;;;;5114035;28;20024;-74
2022/11/21 09:59:50;;;;;;;22.42;8.50;;;7.80;93.20;;;;;;5113896;28;20040;-74
2022/11/21 10:02:18;;;;;;;17.38;7.78;;;7.80;92.90;;;;;;5113755;28;20028;-74
2022/11/21 10:04:47;;;;;;;16.45;7.30;;;7.70;92.90;;;;;;5113584;28;20031;-74
2022/11/21 10:07:31;;;;;;;19.35;8.07;;;7.80;93.50;;;;;;5112477;28;20052;-74
2022/11/21 10:10:25;;;;;;;14.63;6.32;;;7.80;93.20;;;;;;5112733;28;20048;-74
2022/11/21 10:13:42;;;;;;;16.88;7.68;;;7.70;93.10;;;;;;5113636;28;20027;-74
2022/11/21 10:16:34;;;;;;;22.95;8.18;;;7.90;93.30;;;;;;5031833;28;20022;-74
2022/11/21 10:19:13;;;;;;;17.15;7.20;;;8.10;93.40;;;;;;5113606;28;20020;-74
2022/11/21 10:21:56;;;;;;;18.80;7.05;;;8.20;93.00;;;;;;5112590;28;20431;-74
2022/11/21 10:24:24;;;;;;;;;;;8.10;92.70;;;;;;5113898;28;20039;-75
2022/11/21 10:26:52;;;;;;;22.15;6.32;;;8.10;92.50;;;;;;5112466;28;19903;-75
2022/11/21 10:29:41;;;;;;;12.93;6.80;;;8.00;92.90;;;;;;5113475;28;20032;-75
2022/11/21 10:32:21;;;;;;;15.70;6.72;;;8.00;92.70;;;;;;5113465;28;20016;-74
2022/11/21 10:34:50;;;;;;;15.60;6.60;;;8.10;92.90;;;;;;5113599;28;20026;-74
2022/11/21 10:37:26;;;;;;;14.82;5.85;;;8.20;92.90;;;;;;5113411;28;20057;-74
2022/11/21 10:39:53;;;;;;;12.15;5.78;;;8.20;92.70;;;;;;5113405;28;20038;-74
2022/11/21 10:42:25;;;;;;;11.43;6.13;;;8.20;92.80;;;;;;5113366;28;20034;-74
2022/11/21 10:47:38;;;;;;;14.15;6.05;;;8.40;92.50;;;;;;5113582;28;20517;-75
2022/11/21 10:50:38;;;;;;;14.68;6.97;;;8.40;92.40;;;;;;5113275;28;20080;-74
2022/11/21 10:56:06;;;;;;;12.55;5.63;;;8.50;92.40;;;;;;5113400;28;20085;-74
2022/11/21 10:58:46;;;;;;;14.77;6.07;;;8.60;92.20;;;;;;5114780;28;20021;-75
2022/11/21 11:01:33;;;;;;;14.93;5.70;;;8.70;92.30;;;;;;5117169;28;20028;-74
2022/11/21 11:04:08;;;;;;;13.77;4.63;;;8.60;92.30;;;;;;5117188;28;20034;-74
2022/11/21 11:06:35;;;;;;;12.00;5.25;;;8.60;91.50;;;;;;5115729;28;20035;-76
2022/11/21 11:09:02;;;;;;;9.93;4.85;;;8.60;91.60;;;;;;5120548;28;20097;-74
2022/11/21 11:11:28;;;;;;;13.38;5.40;;;8.60;91.70;;;;;;5116948;28;20075;-74
2022/11/21 11:13:59;;;;;;;9.20;5.22;;;8.60;92.00;;;;;;5117036;28;20020;-74
2022/11/21 11:16:27;;;;;;;13.95;5.35;;;8.70;92.00;;;;;;5116787;28;20024;-74
2022/11/21 11:18:59;;;;;;;9.60;4.47;;;8.70;91.60;;;;;;5116795;28;20023;-74
2022/11/21 11:21:40;;;;;;;13.77;5.10;;;8.70;91.50;;;;;;5116922;28;20027;-74
2022/11/21 11:24:08;;;;;;;12.82;5.13;;;8.70;91.70;;;;;;5116746;28;20030;-74
2022/11/21 11:26:48;;;;;;;10.85;4.35;;;8.80;92.00;;;;;;5115641;28;20032;-74
2022/11/21 11:29:25;;;;;;;8.20;4.68;;;8.80;91.40;;;;;;5116697;28;20038;-74
2022/11/21 11:31:51;;;;;;;10.60;4.07;;;8.70;91.70;;;;;;5116593;28;20046;-74
2022/11/21 11:34:17;;;;;;;9.60;4.25;;;8.80;92.00;;;;;;5116566;28;20071;-74
2022/11/21 11:37:10;;;;;;;9.48;3.92;;;8.90;91.90;;;;;;5116635;28;20024;-74
2022/11/21 11:40:03;;;;;;;10.98;3.95;;;8.90;91.50;;;;;;5115421;28;20028;-74
2022/11/21 11:48:42;;;;;;;7.68;3.38;;;9.10;91.10;;;;;;5116344;28;20031;-74
2022/11/21 11:51:16;;;;;;;8.18;3.47;;;9.10;91.10;;;;;;5116177;28;20088;-74
2022/11/21 11:53:50;;;;;;;6.68;3.35;;;9.10;90.50;;;;;;5116134;28;20028;-74
2022/11/21 11:56:27;;;;;;;13.05;3.88;;;9.10;90.20;;;;;;5116123;28;20024;-74
2022/11/21 11:59:16;;;;;;;10.55;3.45;;;9.20;90.40;;;;;;5116065;28;20024;-74
2022/11/21 12:02:00;;;;;;;8.68;3.67;;;9.30;90.00;;;;;;5115192;28;20032;-74
2022/11/21 12:04:33;;;;;;;8.45;4.32;;;9.40;90.20;;;;;;5115901;28;20098;-75
2022/11/21 12:07:07;;;;;;;8.05;3.08;;;9.50;89.20;;;;;;5114980;28;20028;-74
2022/11/21 12:09:46;;;;;;;6.90;2.70;;;9.60;87.80;;;;;;5114117;28;20048;-74
2022/11/21 12:12:50;;;;;;;6.82;3.13;;;9.60;87.10;;;;;;5115943;28;20027;-75
2022/11/21 12:18:18;;;;;;;;;;;9.90;87.00;;;;;;5116360;28;20034;-74
2022/11/21 12:20:47;;;;;;;5.18;2.47;;;9.80;84.60;;;;;;5115613;28;19956;-74
2022/11/21 12:23:13;;;;;;;9.38;3.05;;;9.80;85.50;;;;;;5114527;28;20028;-74
2022/11/21 12:26:02;;;;;;;8.50;2.75;;;9.80;85.50;;;;;;5114447;28;20032;-74
2022/11/21 12:29:04;;;;;;;8.57;2.25;;;9.60;84.10;;;;;;5077674;28;20091;-74
2022/11/21 12:31:52;;;;;;;5.63;2.25;;;9.60;83.70;;;;;;5115439;28;20027;-74
2022/11/21 12:34:33;;;;;;;8.10;2.55;;;9.50;84.90;;;;;;5063653;28;20062;-74
2022/11/21 12:37:08;;;;;;;7.30;2.35;;;9.40;84.90;;;;;;5115304;28;20035;-74
2022/11/21 12:39:52;;;;;;;6.60;2.65;;;9.40;84.60;;;;;;5115302;28;20031;-74
2022/11/21 12:42:48;;;;;;;7.60;2.92;;;9.40;85.40;;;;;;5114250;28;20012;-74
2022/11/21 12:45:19;;;;;;;10.10;3.17;;;9.50;85.80;;;;;;5115116;28;20417;-74
2022/11/21 12:57:12;;;;;;;8.77;2.95;;;9.50;85.70;;;;;;5115157;28;20058;-74
2022/11/21 13:00:00;;;;;;;7.00;3.00;;;9.50;86.10;;;;;;5114927;28;20035;-74
2022/11/21 13:02:44;;;;;;;6.90;3.10;;;9.50;85.50;;;;;;5115021;28;20028;-74
2022/11/21 13:05:17;;;;;;;6.55;2.63;;;9.50;85.20;;;;;;5113912;28;20095;-75
2022/11/21 13:07:44;;;;;;;4.88;2.28;;;9.50;85.50;;;;;;5114505;28;20040;-74
2022/11/21 13:10:16;;;;;;;6.97;2.60;;;9.50;85.20;;;;;;5113697;28;20032;-75
2022/11/21 13:12:50;;;;;;;5.45;2.70;;;9.50;85.40;;;;;;5114644;28;20031;-74
2022/11/21 13:15:26;;;;;;;6.82;2.55;;;9.60;85.60;;;;;;5114597;28;20025;-74
2022/11/21 13:17:58;;;;;;;7.35;2.55;;;9.60;85.40;;;;;;5113624;28;20058;-74
2022/11/21 13:20:45;;;;;;;10.00;2.93;;;9.60;85.70;;;;;;5114468;28;20427;-74
2022/11/21 13:23:32;;;;;;;5.32;2.90;;;9.60;85.00;;;;;;5113543;28;20031;-74
2022/11/21 13:25:58;;;;;;;9.52;2.65;;;9.60;84.30;;;;;;5114319;28;20024;-74
2022/11/21 13:28:32;;;;;;;6.07;2.50;;;9.60;83.90;;;;;;5114297;28;20029;-74